Terminal Aerodrome Forecast
Issued by NWS

Home | Current Version | Previous Version | Text Only | Print | Product List | Glossary On
Versions: 1 2 3 4 5 6 7 8 9 10 11 12 13
000
FTUS44 KEPZ 301200 RRA
TAFDMN
TAF
KDMN 301202Z 3012/3112 08015G23KT P6SM -RA OVC010
     FM301300 08015G23KT P6SM VCSH OVC030
      TEMPO 3013/3017 3SM SHRA OVC010
     FM301700 10008KT P6SM -SHRA BKN025
     FM310000 11008KT P6SM VCSH BKN050
      TEMPO 3100/3104 5SM SHRA BKN020=

USA.gov is the U.S. government's official web portal to all federal, state and local government web resources and services.